Time;durP1;ratioP1;P1;durP2;ratioP2;P2;SDS_P1;SDS_P2;PMS_P1;PMS_P2;Temp;Humidity;BMP_temperature;BMP_pressure;BME280_temperature;BME280_humidity;BME280_pressure;Samples;Min_cycle;Max_cycle;Signal;HPM_P1;HPM_P2
2023/03/12 00:01:33;;;;;;;3.40;1.00;;;;;;;13.98;49.50;100677.50;5041487;28;20045;-76
2023/03/12 00:04:03;;;;;;;4.22;0.98;;;;;;;13.90;50.71;100671.31;5057641;28;20053;-77
2023/03/12 00:06:32;;;;;;;4.70;0.75;;;;;;;13.85;48.96;100676.44;5047229;28;20514;-77
2023/03/12 00:09:00;;;;;;;3.65;1.25;;;;;;;13.90;49.61;100674.78;5051262;28;20051;-75
2023/03/12 00:11:29;;;;;;;6.25;0.88;;;;;;;13.95;51.60;100677.44;5050870;28;20049;-75
2023/03/12 00:14:00;;;;;;;2.13;0.82;;;;;;;13.98;49.96;100670.56;5048619;28;20524;-76
2023/03/12 00:16:29;;;;;;;3.95;1.15;;;;;;;14.04;49.45;100668.06;5050620;28;20132;-74
2023/03/12 00:18:59;;;;;;;1.95;0.70;;;;;;;14.06;50.46;100669.81;5053230;28;20053;-76
2023/03/12 00:21:28;;;;;;;5.30;0.73;;;;;;;13.94;51.17;100666.16;5058954;28;20048;-76
2023/03/12 00:23:56;;;;;;;2.92;0.88;;;;;;;13.85;51.05;100663.44;5048353;28;20716;-75
2023/03/12 00:26:25;;;;;;;2.13;0.73;;;;;;;13.78;51.06;100659.00;5053934;28;20045;-75
2023/03/12 00:28:53;;;;;;;0.95;0.60;;;;;;;13.67;50.17;100664.03;5046748;28;20053;-75
2023/03/12 00:31:25;;;;;;;2.70;0.65;;;;;;;13.60;50.36;100662.19;5045613;28;20135;-74
2023/03/12 00:33:54;;;;;;;1.58;0.80;;;;;;;13.53;48.73;100661.22;5048712;28;20060;-74
2023/03/12 00:36:27;;;;;;;2.05;0.80;;;;;;;13.49;50.03;100662.03;5044031;28;20046;-72
2023/03/12 00:38:57;;;;;;;2.35;0.60;;;;;;;13.46;49.99;100656.78;5053634;27;20056;-72
2023/03/12 00:41:27;;;;;;;3.58;0.70;;;;;;;13.42;50.50;100654.97;5051767;28;20052;-72
2023/03/12 00:43:55;;;;;;;1.85;0.70;;;;;;;13.41;50.17;100655.84;5045115;28;20107;-71
2023/03/12 00:46:24;;;;;;;1.90;0.63;;;;;;;13.41;49.49;100661.03;5051018;28;20057;-72
2023/03/12 00:48:53;;;;;;;1.75;0.77;;;;;;;13.39;50.17;100655.78;5049362;28;20762;-72
2023/03/12 00:51:30;;;;;;;2.10;0.57;;;;;;;13.35;50.21;100650.53;5057897;28;20053;-71
2023/03/12 00:53:59;;;;;;;4.07;1.00;;;;;;;13.33;51.24;100653.13;5045339;28;20502;-72
2023/03/12 00:56:27;;;;;;;2.17;0.45;;;;;;;13.34;51.86;100647.06;5047052;28;20765;-70
2023/03/12 00:58:56;;;;;;;3.50;0.50;;;;;;;13.31;51.16;100644.41;5041778;28;20048;-70
2023/03/12 01:01:26;;;;;;;1.20;0.70;;;;;;;13.29;51.60;100646.13;5056517;28;20049;-71
2023/03/12 01:03:55;;;;;;;2.80;0.60;;;;;;;13.24;51.36;100645.13;5051063;28;20045;-72
2023/03/12 01:06:24;;;;;;;1.95;0.90;;;;;;;13.21;50.27;100650.25;5044964;28;20102;-72
2023/03/12 01:08:54;;;;;;;4.10;0.70;;;;;;;13.17;50.88;100654.56;5044170;28;20048;-77
2023/03/12 01:11:23;;;;;;;1.73;0.70;;;;;;;13.08;50.68;100649.19;5042993;28;20076;-71
2023/03/12 01:13:52;;;;;;;1.02;0.60;;;;;;;13.05;50.95;100643.06;5048732;28;20111;-71
2023/03/12 01:16:21;;;;;;;3.15;0.75;;;;;;;12.94;52.37;100650.66;5045364;28;20053;-71
2023/03/12 01:18:49;;;;;;;2.28;0.68;;;;;;;12.88;51.29;100645.38;5051423;28;20139;-70
2023/03/12 01:21:18;;;;;;;3.53;0.73;;;;;;;12.88;51.42;100647.97;5051143;28;20148;-70
2023/03/12 01:23:46;;;;;;;3.67;1.17;;;;;;;12.86;50.86;100647.94;5053469;28;20701;-70
2023/03/12 01:26:16;;;;;;;4.13;1.13;;;;;;;12.77;51.05;100651.22;5049776;28;20045;-74
2023/03/12 01:28:45;;;;;;;2.45;0.73;;;;;;;12.76;50.73;100646.88;5045696;28;20046;-74
2023/03/12 01:31:15;;;;;;;2.40;0.50;;;;;;;12.77;51.00;100646.03;5046858;28;20110;-72
2023/03/12 01:33:44;;;;;;;2.53;0.60;;;;;;;12.81;50.83;100646.09;5043486;28;20058;-72
2023/03/12 01:36:20;;;;;;;3.95;0.70;;;;;;;12.78;51.98;100645.19;5036429;28;20109;-74
2023/03/12 01:38:50;;;;;;;4.13;0.93;;;;;;;12.75;53.52;100650.31;5047185;27;20107;-74
2023/03/12 01:41:21;;;;;;;1.48;0.50;;;;;;;12.71;52.57;100643.34;5049006;28;20045;-71
2023/03/12 01:43:49;;;;;;;1.40;0.60;;;;;;;12.67;52.85;100644.13;5035096;28;20545;-72
2023/03/12 01:46:29;;;;;;;3.35;1.00;;;;;;;12.58;53.29;100643.94;5049463;28;20125;-75
2023/03/12 01:49:02;;;;;;;4.38;1.50;;;;;;;12.51;52.25;100650.72;5046836;28;20526;-73
2023/03/12 01:51:35;;;;;;;4.53;1.15;;;;;;;12.49;53.87;100646.34;5050967;28;20251;-74
2023/03/12 01:54:08;;;;;;;1.42;0.55;;;;;;;12.49;51.46;100656.72;5048624;28;20179;-72
2023/03/12 01:56:39;;;;;;;0.55;0.38;;;;;;;12.49;51.05;100651.53;5057823;28;20044;-74
2023/03/12 01:59:14;;;;;;;4.03;0.40;;;;;;;12.46;51.38;100657.56;5051968;28;20085;-73
2023/03/12 02:01:44;;;;;;;1.30;0.82;;;;;;;12.40;50.99;100651.34;5050160;28;20090;-71
2023/03/12 02:04:14;;;;;;;1.50;0.70;;;;;;;12.39;51.27;100654.78;5049130;28;20102;-73
2023/03/12 02:06:48;;;;;;;1.67;0.50;;;;;;;12.32;50.21;100649.50;5057109;28;20055;-73
2023/03/12 02:09:19;;;;;;;0.60;0.40;;;;;;;12.26;50.54;100646.75;5045369;28;20049;-71
2023/03/12 02:11:49;;;;;;;1.83;0.55;;;;;;;12.20;49.44;100650.94;5054677;28;21105;-73
2023/03/12 02:14:18;;;;;;;2.78;0.65;;;;;;;12.12;50.03;100648.19;5051375;28;20053;-74
2023/03/12 02:16:46;;;;;;;3.40;0.70;;;;;;;12.06;50.95;100645.47;5050028;28;20045;-73
2023/03/12 02:19:23;;;;;;;1.23;0.60;;;;;;;11.99;50.24;100652.22;5059635;28;20044;-72
2023/03/12 02:21:52;;;;;;;1.20;0.68;;;;;;;11.87;50.66;100639.88;5053225;28;20053;-71
2023/03/12 02:24:28;;;;;;;0.75;0.40;;;;;;;11.85;51.71;100651.88;5055853;28;20049;-71
2023/03/12 02:26:59;;;;;;;2.13;0.60;;;;;;;11.76;51.89;100651.69;5045712;28;20685;-72
2023/03/12 02:29:31;;;;;;;0.52;0.40;;;;;;;11.66;52.52;100647.09;5053090;28;20049;-71
2023/03/12 02:32:03;;;;;;;1.03;0.40;;;;;;;11.60;52.96;100649.56;5046610;28;21569;-70
2023/03/12 02:34:31;;;;;;;1.88;0.80;;;;;;;11.51;52.90;100648.50;5035658;28;20052;-71
2023/03/12 02:37:00;;;;;;;3.72;1.23;;;;;;;11.45;54.01;100647.47;5053836;28;20077;-72
2023/03/12 02:39:28;;;;;;;2.42;0.70;;;;;;;11.35;55.17;100646.38;5048110;28;20418;-71
2023/03/12 02:42:01;;;;;;;2.22;0.80;;;;;;;11.28;55.70;100653.13;5051815;28;20136;-72
2023/03/12 02:44:32;;;;;;;6.95;0.95;;;;;;;11.20;58.25;100648.59;5056667;28;20127;-71
2023/03/12 02:47:02;;;;;;;3.10;0.98;;;;;;;11.11;59.59;100657.03;5046851;28;20049;-71
2023/03/12 02:49:33;;;;;;;4.07;1.98;;;;;;;11.01;60.12;100655.88;5058523;28;20048;-70
2023/03/12 02:52:02;;;;;;;2.42;0.98;;;;;;;10.92;61.81;100653.06;5043370;28;20569;-72
2023/03/12 02:54:31;;;;;;;2.13;1.20;;;;;;;10.84;62.10;100652.00;5049738;28;20530;-74
2023/03/12 02:57:02;;;;;;;5.15;1.65;;;;;;;10.75;62.66;100656.91;5058742;28;20040;-73
2023/03/12 02:59:30;;;;;;;5.97;1.58;;;;;;;10.67;63.00;100652.41;5050662;28;20048;-73
2023/03/12 03:02:01;;;;;;;2.78;1.50;;;;;;;10.61;62.90;100647.06;5054305;28;20048;-72
2023/03/12 03:04:30;;;;;;;2.30;1.20;;;;;;;10.54;62.80;100659.81;5060865;28;20053;-73
2023/03/12 03:06:59;;;;;;;2.38;1.50;;;;;;;10.46;65.52;100659.56;5047406;28;20131;-72
2023/03/12 03:09:27;;;;;;;3.28;1.38;;;;;;;10.42;65.79;100665.47;5044200;28;20052;-74
2023/03/12 03:11:56;;;;;;;6.00;1.30;;;;;;;10.35;65.15;100663.56;5059163;28;20044;-75
2023/03/12 03:14:26;;;;;;;3.80;1.23;;;;;;;10.27;65.24;100660.72;5049002;28;20048;-73
2023/03/12 03:16:55;;;;;;;3.28;1.33;;;;;;;10.18;66.34;100650.97;5042004;28;20049;-74
2023/03/12 03:19:23;;;;;;;4.57;1.33;;;;;;;10.09;65.03;100655.88;5047060;28;20049;-74
2023/03/12 03:21:52;;;;;;;5.35;1.48;;;;;;;10.00;66.54;100655.59;5045338;28;20049;-76
2023/03/12 03:24:21;;;;;;;3.30;1.33;;;;;;;9.95;67.70;100662.34;5053004;28;20056;-75
2023/03/12 03:26:49;;;;;;;4.72;1.67;;;;;;;9.86;68.14;100656.06;5042358;28;20072;-75
2023/03/12 03:29:18;;;;;;;3.15;1.90;;;;;;;9.78;67.86;100659.22;5042649;28;20045;-73
2023/03/12 03:31:48;;;;;;;3.17;1.95;;;;;;;9.69;68.56;100658.94;5055915;28;20118;-75
2023/03/12 03:34:16;;;;;;;5.13;2.00;;;;;;;9.61;69.20;100656.13;5055066;28;20406;-73
2023/03/12 03:36:45;;;;;;;12.68;3.22;;;;;;;9.53;69.04;100657.56;5049623;28;20494;-76
2023/03/12 03:39:13;;;;;;;7.78;2.88;;;;;;;9.43;69.43;100659.84;5055295;27;20506;-72
2023/03/12 03:41:42;;;;;;;11.68;3.35;;;;;;;9.36;69.17;100662.19;5049959;28;20565;-76
2023/03/12 03:44:11;;;;;;;7.78;3.38;;;;;;;9.29;69.85;100663.69;5047094;28;20112;-73
2023/03/12 03:46:40;;;;;;;5.82;2.95;;;;;;;9.21;69.52;100658.28;5043976;28;20049;-73
2023/03/12 03:49:11;;;;;;;3.58;2.03;;;;;;;9.14;69.70;100661.50;5049027;28;20110;-75
2023/03/12 03:51:41;;;;;;;4.63;2.05;;;;;;;9.05;71.08;100657.72;5052588;28;20052;-76
2023/03/12 03:54:14;;;;;;;8.05;3.08;;;;;;;8.99;72.02;100669.59;5045395;28;20139;-74
2023/03/12 03:56:43;;;;;;;10.75;4.43;;;;;;;8.93;73.83;100666.81;5050475;28;20060;-75
2023/03/12 03:59:12;;;;;;;5.78;3.17;;;;;;;8.86;73.30;100662.25;5052804;28;20140;-74
2023/03/12 04:01:41;;;;;;;11.43;5.75;;;;;;;8.80;73.57;100657.75;5056838;28;20097;-73
2023/03/12 04:04:11;;;;;;;8.55;3.75;;;;;;;8.75;74.43;100660.97;5049544;28;20064;-73
2023/03/12 04:06:40;;;;;;;4.43;2.53;;;;;;;8.71;75.63;100662.59;5059391;28;20040;-75
2023/03/12 04:09:09;;;;;;;5.22;2.47;;;;;;;8.66;75.56;100668.41;5049186;28;20453;-73
2023/03/12 04:11:37;;;;;;;6.43;3.13;;;;;;;8.63;79.55;100668.28;5051090;28;20048;-76
2023/03/12 04:14:06;;;;;;;5.70;2.40;;;;;;;8.58;83.74;100666.41;5044544;28;20057;-76
2023/03/12 04:16:34;;;;;;;4.35;2.08;;;;;;;8.51;80.52;100672.19;5051288;28;20517;-76
2023/03/12 04:19:03;;;;;;;5.85;1.83;;;;;;;8.41;79.50;100667.53;5047171;28;20052;-75
2023/03/12 04:21:33;;;;;;;4.50;2.25;;;;;;;8.34;78.76;100663.81;5045241;28;20526;-75
2023/03/12 04:24:16;;;;;;;7.65;2.50;;;;;;;8.26;77.16;100666.91;5051937;28;20049;-75
2023/03/12 04:26:45;;;;;;;11.00;4.72;;;;;;;8.19;78.11;100669.25;5051776;28;20070;-76
2023/03/12 04:29:14;;;;;;;14.88;4.43;;;;;;;8.12;77.81;100668.97;5046854;28;20742;-75
2023/03/12 04:31:43;;;;;;;7.40;3.90;;;;;;;8.06;77.81;100668.72;5056949;28;20114;-77
2023/03/12 04:34:11;;;;;;;12.30;4.28;;;;;;;7.97;77.36;100665.00;5054835;28;20057;-72
2023/03/12 04:36:42;;;;;;;8.80;4.45;;;;;;;7.89;78.05;100670.69;5050911;28;20036;-75
2023/03/12 04:39:16;;;;;;;9.93;4.30;;;;;;;7.81;78.93;100662.66;5047171;28;20037;-74
2023/03/12 04:41:52;;;;;;;9.65;4.30;;;;;;;7.72;78.65;100668.31;5047481;28;20057;-71
2023/03/12 04:44:20;;;;;;;6.43;3.30;;;;;;;7.65;78.58;100656.03;5048536;28;20056;-75
2023/03/12 04:46:49;;;;;;;7.65;3.72;;;;;;;7.59;79.00;100655.78;5049796;28;20052;-73
2023/03/12 04:49:17;;;;;;;10.30;4.05;;;;;;;7.55;79.18;100659.03;5046437;28;20512;-73
2023/03/12 04:51:48;;;;;;;10.30;3.67;;;;;;;7.46;79.90;100656.09;5049787;28;20045;-74
2023/03/12 04:54:16;;;;;;;7.13;3.30;;;;;;;7.42;79.95;100659.34;5050753;28;20111;-75
2023/03/12 04:56:45;;;;;;;7.75;3.55;;;;;;;7.36;80.30;100653.97;5048409;28;20475;-74
2023/03/12 04:59:14;;;;;;;11.45;5.35;;;;;;;7.29;80.38;100650.28;5060235;28;20981;-75
2023/03/12 05:01:42;;;;;;;14.15;5.93;;;;;;;7.23;80.31;100650.88;5046472;28;20040;-74
2023/03/12 05:04:11;;;;;;;14.90;5.80;;;;;;;7.18;79.99;100660.13;5055683;28;20445;-74
2023/03/12 05:06:39;;;;;;;14.02;5.88;;;;;;;7.13;80.31;100661.63;5049308;28;20076;-74
2023/03/12 05:09:10;;;;;;;12.35;5.75;;;;;;;7.06;80.69;100651.88;5055210;28;20406;-74
2023/03/12 05:11:38;;;;;;;12.40;7.00;;;;;;;7.00;80.75;100657.63;5051240;28;20065;-74
2023/03/12 05:14:07;;;;;;;13.00;6.22;;;;;;;6.95;81.18;100658.28;5043278;28;20769;-73
2023/03/12 05:16:35;;;;;;;23.90;7.18;;;;;;;6.87;81.44;100661.41;5049391;28;20045;-74
2023/03/12 05:19:04;;;;;;;17.67;5.80;;;;;;;6.85;81.55;100662.13;5043951;28;20048;-74
2023/03/12 05:21:32;;;;;;;11.98;5.03;;;;;;;6.79;81.72;100655.03;5049499;28;20097;-75
2023/03/12 05:24:01;;;;;;;13.10;4.97;;;;;;;6.72;81.37;100666.75;5050144;28;20053;-76
2023/03/12 05:26:33;;;;;;;13.57;4.75;;;;;;;6.67;80.63;100664.81;5055040;28;20454;-76
2023/03/12 05:29:02;;;;;;;11.02;4.40;;;;;;;6.61;81.29;100669.66;5047815;28;20102;-74
2023/03/12 05:31:33;;;;;;;7.60;3.75;;;;;;;6.52;81.04;100662.41;5064232;28;20475;-74
2023/03/12 05:34:03;;;;;;;4.35;2.17;;;;;;;6.44;81.19;100664.66;5048519;28;20075;-75
2023/03/12 05:36:31;;;;;;;4.68;2.35;;;;;;;6.37;81.81;100667.78;5047982;28;20055;-74
2023/03/12 05:39:06;;;;;;;7.43;2.22;;;;;;;6.31;82.11;100664.91;5051472;27;20055;-76
2023/03/12 05:41:44;;;;;;;4.63;1.88;;;;;;;6.20;83.14;100653.28;5045127;28;20048;-76
2023/03/12 05:44:14;;;;;;;4.93;2.85;;;;;;;6.23;83.44;100661.13;5042354;28;20174;-76
2023/03/12 05:46:44;;;;;;;9.50;3.42;;;;;;;6.17;84.07;100653.16;5048875;28;20609;-76
2023/03/12 05:49:12;;;;;;;11.38;4.18;;;;;;;6.11;84.65;100655.44;5041108;28;20091;-75
2023/03/12 05:51:42;;;;;;;9.30;3.08;;;;;;;6.07;86.08;100657.88;5043766;28;20071;-75
2023/03/12 05:54:11;;;;;;;7.18;2.90;;;;;;;6.05;86.56;100658.59;5040194;28;20494;-75
2023/03/12 05:56:39;;;;;;;7.65;3.70;;;;;;;6.03;86.44;100661.09;5043826;28;20045;-73
2023/03/12 05:59:10;;;;;;;5.10;2.60;;;;;;;6.00;87.34;100660.97;5046505;28;20058;-75
2023/03/12 06:01:39;;;;;;;6.28;2.65;;;;;;;5.99;87.65;100659.19;5041474;28;20092;-73
2023/03/12 06:04:08;;;;;;;7.50;2.67;;;;;;;5.99;88.73;100666.91;5047320;28;20099;-74
2023/03/12 06:06:37;;;;;;;6.28;2.33;;;;;;;5.95;88.61;100657.28;5041566;28;20132;-74
2023/03/12 06:09:07;;;;;;;3.42;1.95;;;;;;;5.93;90.15;100661.44;5039960;28;20131;-75
2023/03/12 06:11:35;;;;;;;5.78;3.08;;;;;;;5.91;89.97;100659.59;5042225;28;20045;-75
2023/03/12 06:14:04;;;;;;;4.43;1.95;;;;;;;5.90;90.39;100668.13;5044400;28;20053;-76
2023/03/12 06:16:34;;;;;;;10.63;2.60;;;;;;;5.89;90.32;100669.81;5039765;28;20502;-75
2023/03/12 06:19:04;;;;;;;5.47;2.30;;;;;;;5.86;90.23;100668.00;5042808;28;20053;-76
2023/03/12 06:21:34;;;;;;;6.82;1.88;;;;;;;5.86;90.62;100661.94;5042741;28;20518;-75
2023/03/12 06:24:03;;;;;;;10.25;2.72;;;;;;;5.81;90.27;100658.28;5042333;28;20045;-76
2023/03/12 06:26:32;;;;;;;4.40;1.60;;;;;;;5.78;90.62;100659.03;5048705;28;20491;-76
2023/03/12 06:29:00;;;;;;;4.68;1.80;;;;;;;5.77;91.72;100656.38;5040807;28;20665;-77
2023/03/12 06:31:29;;;;;;;5.05;2.30;;;;;;;5.75;91.29;100664.03;5047158;28;20048;-78
2023/03/12 06:33:59;;;;;;;2.90;1.98;;;;;;;5.75;91.31;100663.13;5038384;28;20060;-74
2023/03/12 06:36:28;;;;;;;2.80;1.73;;;;;;;5.73;92.09;100659.66;5045103;28;20053;-73
2023/03/12 06:38:56;;;;;;;4.00;1.73;;;;;;;5.70;91.70;100662.03;5038873;28;20103;-74
2023/03/12 06:41:25;;;;;;;4.18;1.77;;;;;;;5.66;91.24;100661.91;5048332;28;20116;-74
2023/03/12 06:43:53;;;;;;;8.25;2.65;;;;;;;5.64;92.22;100658.38;5049342;28;20048;-73
2023/03/12 06:46:24;;;;;;;8.55;2.20;;;;;;;5.61;92.63;100657.34;5045794;28;20049;-74
2023/03/12 06:48:52;;;;;;;4.10;2.50;;;;;;;5.58;92.56;100655.50;5058120;28;20460;-73
2023/03/12 06:51:22;;;;;;;5.13;1.58;;;;;;;5.56;92.04;100653.69;5055374;28;20505;-74
2023/03/12 06:53:51;;;;;;;4.72;1.95;;;;;;;5.52;92.40;100660.38;5051775;28;20046;-72
2023/03/12 06:56:19;;;;;;;4.85;2.72;;;;;;;5.47;92.30;100654.13;5060801;28;20052;-72
2023/03/12 06:58:48;;;;;;;4.32;2.05;;;;;;;5.44;92.36;100651.41;5049772;28;20060;-72
2023/03/12 07:01:17;;;;;;;4.50;1.95;;;;;;;5.39;93.01;100651.19;5059737;28;20505;-72
2023/03/12 07:03:46;;;;;;;3.05;1.77;;;;;;;5.37;93.37;100649.34;5043623;28;20542;-72
2023/03/12 07:06:15;;;;;;;6.32;2.15;;;;;;;5.34;93.96;100670.63;5053428;28;20040;-72
2023/03/12 07:08:46;;;;;;;3.25;1.73;;;;;;;5.31;93.98;100657.63;5048012;28;20456;-72
2023/03/12 07:11:16;;;;;;;5.53;2.15;;;;;;;5.28;94.31;100667.75;5063134;28;20052;-71
2023/03/12 07:13:45;;;;;;;3.38;1.38;;;;;;;5.25;95.28;100665.03;5048117;28;20056;-71
2023/03/12 07:16:15;;;;;;;3.30;1.45;;;;;;;5.23;96.44;100653.81;5057176;28;20110;-72
2023/03/12 07:18:44;;;;;;;5.38;2.15;;;;;;;5.22;96.41;100660.63;5050019;28;20490;-72
2023/03/12 07:21:12;;;;;;;2.72;1.52;;;;;;;5.19;96.86;100654.47;5039230;28;20049;-73
2023/03/12 07:23:41;;;;;;;3.47;1.88;;;;;;;5.20;96.92;100662.25;5040289;28;20057;-72
2023/03/12 07:26:11;;;;;;;4.15;1.70;;;;;;;5.17;96.62;100651.81;5042273;28;20486;-72
2023/03/12 07:28:40;;;;;;;2.95;1.63;;;;;;;5.13;96.48;100654.16;5051740;28;20052;-72
2023/03/12 07:31:09;;;;;;;4.20;1.77;;;;;;;5.12;97.27;100653.28;5048391;28;20058;-72
2023/03/12 07:33:37;;;;;;;10.07;2.28;;;;;;;5.11;97.13;100651.53;5047008;28;21189;-72
2023/03/12 07:36:07;;;;;;;3.63;1.98;;;;;;;5.10;97.59;100649.75;5041446;28;20099;-72
2023/03/12 07:38:35;;;;;;;3.70;1.92;;;;;;;5.06;97.13;100647.84;5042442;28;20282;-72
2023/03/12 07:41:04;;;;;;;6.40;2.10;;;;;;;5.06;97.12;100645.28;5052040;27;20053;-72
2023/03/12 07:43:34;;;;;;;6.75;2.33;;;;;;;5.05;96.90;100646.09;5055668;28;20052;-72
2023/03/12 07:46:02;;;;;;;10.00;2.33;;;;;;;5.03;97.20;100652.81;5048320;28;20048;-72
2023/03/12 07:48:31;;;;;;;2.95;1.75;;;;;;;5.00;96.74;100638.16;5042620;28;20062;-72
2023/03/12 07:50:59;;;;;;;5.68;2.45;;;;;;;4.99;97.19;100636.41;5056881;28;20098;-72
2023/03/12 07:53:28;;;;;;;5.82;1.88;;;;;;;4.96;97.00;100627.69;5045906;28;20095;-72
2023/03/12 07:55:56;;;;;;;5.75;2.60;;;;;;;4.96;97.55;100638.81;5058604;28;20060;-72
2023/03/12 07:58:25;;;;;;;3.60;1.73;;;;;;;4.95;98.21;100625.94;5034743;28;20514;-72
2023/03/12 08:00:56;;;;;;;6.57;1.85;;;;;;;4.91;98.02;100631.72;5057686;28;20052;-72
2023/03/12 08:03:24;;;;;;;7.43;2.47;;;;;;;4.87;98.27;100629.78;5042513;28;20053;-72
2023/03/12 08:06:01;;;;;;;4.63;2.05;;;;;;;4.85;98.40;100633.94;5051202;28;20049;-71
2023/03/12 08:08:30;;;;;;;5.00;1.48;;;;;;;4.80;97.98;100634.59;5047860;28;20095;-72
2023/03/12 08:10:59;;;;;;;4.90;1.50;;;;;;;4.78;98.39;100636.19;5058467;28;20033;-72
2023/03/12 08:13:28;;;;;;;4.43;1.63;;;;;;;4.76;98.00;100636.91;5049670;28;20502;-72
2023/03/12 08:15:58;;;;;;;5.75;2.00;;;;;;;4.75;98.03;100651.44;5047210;28;20057;-71
2023/03/12 08:18:27;;;;;;;4.45;1.50;;;;;;;4.74;98.35;100644.56;5040538;28;20045;-72
2023/03/12 08:20:56;;;;;;;4.22;1.92;;;;;;;4.71;97.84;100649.50;5050346;28;20637;-72
2023/03/12 08:23:25;;;;;;;8.32;2.47;;;;;;;4.67;97.93;100649.28;5046680;28;20404;-72
2023/03/12 08:25:55;;;;;;;2.55;1.73;;;;;;;4.65;96.73;100649.22;5043459;28;20431;-72
2023/03/12 08:28:24;;;;;;;5.88;2.03;;;;;;;4.59;96.84;100649.75;5044452;28;20112;-72
2023/03/12 08:30:55;;;;;;;9.05;2.22;;;;;;;4.55;97.47;100654.66;5046879;28;20040;-72
2023/03/12 08:33:25;;;;;;;2.58;1.55;;;;;;;4.53;98.01;100658.81;5051721;28;20701;-72
2023/03/12 08:35:54;;;;;;;2.92;1.60;;;;;;;4.52;98.89;100651.94;5053996;28;20060;-72
2023/03/12 08:38:23;;;;;;;6.93;1.67;;;;;;;4.51;98.88;100650.16;5049530;28;20053;-72
2023/03/12 08:40:57;;;;;;;5.55;1.48;;;;;;;4.49;98.98;100647.53;5047615;28;20498;-72
2023/03/12 08:43:26;;;;;;;5.03;1.73;;;;;;;4.45;98.67;100643.03;5046309;28;20513;-72
2023/03/12 08:45:56;;;;;;;10.85;2.20;;;;;;;4.41;98.18;100648.81;5038263;28;20095;-72
2023/03/12 08:48:26;;;;;;;4.35;1.88;;;;;;;4.38;98.59;100641.84;5050317;28;20055;-71
2023/03/12 08:50:57;;;;;;;3.67;1.80;;;;;;;4.35;98.50;100649.38;5053394;28;20120;-72
2023/03/12 08:53:25;;;;;;;2.67;1.23;;;;;;;4.32;98.86;100638.94;5047503;28;20142;-72
2023/03/12 08:55:55;;;;;;;2.60;1.60;;;;;;;4.30;99.12;100645.66;5052483;28;20049;-72
2023/03/12 08:58:24;;;;;;;2.22;1.60;;;;;;;4.29;99.52;100658.41;5048422;28;20486;-72
2023/03/12 09:00:53;;;;;;;2.88;1.35;;;;;;;4.25;99.55;100657.34;5049849;28;20048;-72
2023/03/12 09:03:22;;;;;;;3.28;1.60;;;;;;;4.24;99.86;100655.63;5046475;28;20103;-72
2023/03/12 09:06:02;;;;;;;6.90;1.27;;;;;;;4.22;99.28;100659.75;5049980;28;20045;-72
2023/03/12 09:08:32;;;;;;;3.10;1.75;;;;;;;4.23;100.00;100658.09;5043464;28;20404;-72
2023/03/12 09:11:02;;;;;;;6.38;1.90;;;;;;;4.23;100.00;100658.94;5043209;28;20048;-70
2023/03/12 09:13:31;;;;;;;5.90;1.92;;;;;;;4.20;100.00;100662.25;5042106;28;20052;-72
2023/03/12 09:16:00;;;;;;;4.15;1.33;;;;;;;4.15;100.00;100650.00;5044061;28;20045;-72
2023/03/12 09:18:30;;;;;;;3.20;2.05;;;;;;;4.16;100.00;100657.75;5054466;28;20052;-73
2023/03/12 09:21:00;;;;;;;4.55;1.85;;;;;;;4.14;100.00;100661.91;5042859;28;20052;-72
2023/03/12 09:23:29;;;;;;;5.32;1.77;;;;;;;4.12;99.70;100655.84;5053511;28;20552;-71
2023/03/12 09:25:58;;;;;;;3.90;1.58;;;;;;;4.12;100.00;100657.50;5047226;28;20056;-71
2023/03/12 09:28:26;;;;;;;3.88;1.40;;;;;;;4.11;100.00;100653.19;5046003;28;20107;-71
2023/03/12 09:30:55;;;;;;;10.63;2.45;;;;;;;4.08;100.00;100651.34;5045355;28;20533;-72
2023/03/12 09:33:23;;;;;;;9.65;1.92;;;;;;;4.06;99.31;100639.25;5045324;28;20037;-72
2023/03/12 09:35:59;;;;;;;3.55;1.85;;;;;;;4.03;99.90;100644.19;5052011;28;20103;-72
2023/03/12 09:38:30;;;;;;;5.90;1.65;;;;;;;4.01;100.00;100641.56;5059767;28;20557;-72
2023/03/12 09:41:05;;;;;;;5.40;2.15;;;;;;;3.98;99.94;100639.69;5048762;28;20457;-72
2023/03/12 09:43:39;;;;;;;6.68;2.20;;;;;;;3.96;99.03;100642.97;5053840;28;20056;-72
2023/03/12 09:46:15;;;;;;;9.32;2.50;;;;;;;3.94;99.83;100640.38;5039415;28;20047;-73
2023/03/12 09:48:45;;;;;;;7.93;2.75;;;;;;;3.93;100.00;100638.59;5047558;28;20048;-72
2023/03/12 09:51:21;;;;;;;6.03;2.20;;;;;;;3.92;99.29;100646.19;5058511;28;20495;-72
2023/03/12 09:53:52;;;;;;;4.43;1.67;;;;;;;3.89;99.08;100644.31;5055465;28;20414;-72
2023/03/12 09:56:22;;;;;;;7.10;2.35;;;;;;;3.88;99.46;100639.16;5051640;28;20080;-71
2023/03/12 09:58:53;;;;;;;6.10;2.35;;;;;;;3.85;100.00;100629.63;5049886;28;20041;-72
2023/03/12 10:01:39;;;;;;;4.47;1.83;;;;;;;3.83;99.04;100631.22;5052126;28;20049;-72
2023/03/12 10:04:37;;;;;;;5.78;1.88;;;;;;;3.77;98.92;100629.19;5048887;28;20060;-71
2023/03/12 10:07:12;;;;;;;5.53;1.88;;;;;;;3.72;99.22;100609.28;5039047;28;20041;-72
2023/03/12 10:10:07;;;;;;;6.10;2.03;;;;;;;3.68;98.68;100620.13;5049572;28;20103;-71
2023/03/12 10:12:49;;;;;;;3.38;2.08;;;;;;;3.63;99.65;100609.66;5052011;28;20075;-72
2023/03/12 10:15:28;;;;;;;4.55;1.95;;;;;;;3.63;99.98;100611.34;5049114;28;20115;-72
2023/03/12 10:18:09;;;;;;;5.45;2.08;;;;;;;3.64;100.00;100605.41;5040211;28;20053;-72
2023/03/12 10:21:09;;;;;;;5.68;1.65;;;;;;;3.61;99.58;100589.91;5051871;28;20520;-71
2023/03/12 10:23:51;;;;;;;6.30;2.25;;;;;;;3.61;99.73;100595.00;5043889;28;20534;-71
2023/03/12 10:26:24;;;;;;;7.57;2.13;;;;;;;3.59;99.70;100596.59;5054422;28;20037;-72
2023/03/12 10:28:58;;;;;;;6.85;2.35;;;;;;;3.59;98.01;100614.50;5046992;28;20117;-72
2023/03/12 10:31:29;;;;;;;9.30;1.90;;;;;;;3.52;97.72;100609.03;5048776;28;20524;-72
2023/03/12 10:34:00;;;;;;;6.05;3.63;;;;;;;3.50;99.13;100610.63;5046286;28;20434;-72
2023/03/12 10:36:36;;;;;;;11.63;2.47;;;;;;;3.50;100.00;100605.53;5045114;28;20490;-72
2023/03/12 10:39:14;;;;;;;5.65;2.70;;;;;;;3.48;98.99;100607.16;5043415;28;20049;-71
2023/03/12 10:41:44;;;;;;;4.30;2.55;;;;;;;3.43;99.70;100605.09;5053126;28;20753;-71
2023/03/12 10:44:20;;;;;;;4.72;2.30;;;;;;;3.40;100.00;100599.84;5042838;28;20048;-72
2023/03/12 10:47:05;;;;;;;6.35;2.30;;;;;;;3.38;100.00;100607.41;5052165;28;20056;-72
2023/03/12 10:49:36;;;;;;;3.13;1.58;;;;;;;3.30;100.00;100599.31;5052337;28;20083;-72
2023/03/12 10:52:07;;;;;;;5.50;2.35;;;;;;;3.23;100.00;100588.63;5051607;28;20083;-72
2023/03/12 10:54:40;;;;;;;5.85;2.63;;;;;;;3.19;100.00;100579.94;5050640;28;20056;-72
2023/03/12 10:57:09;;;;;;;4.82;1.73;;;;;;;3.22;100.00;100589.44;5056804;28;20498;-72
2023/03/12 10:59:41;;;;;;;4.88;2.08;;;;;;;3.22;100.00;100586.91;5045040;28;20103;-72
2023/03/12 11:02:32;;;;;;;;;;;;;;;3.22;98.88;100592.88;5043764;28;20131;-72
2023/03/12 11:05:03;;;;;;;9.13;2.28;;;;;;;3.15;98.45;100586.53;5046371;28;20366;-71
2023/03/12 11:07:33;;;;;;;3.33;1.80;;;;;;;3.06;98.46;100596.25;5049444;28;20071;-73
2023/03/12 11:10:24;;;;;;;4.63;1.55;;;;;;;2.94;99.57;100598.97;5042143;28;20123;-72
2023/03/12 11:12:56;;;;;;;4.07;1.85;;;;;;;2.90;100.00;100598.72;5045876;28;20503;-72
2023/03/12 11:15:27;;;;;;;3.63;2.00;;;;;;;2.88;100.00;100597.75;5050464;28;20052;-72
2023/03/12 11:18:20;;;;;;;6.30;2.17;;;;;;;2.91;100.00;100595.41;5059357;28;20135;-72
2023/03/12 11:20:49;;;;;;;;;;;;;;;2.90;99.74;100580.84;5051414;28;20059;-72
2023/03/12 11:23:20;;;;;;;3.67;2.17;;;;;;;2.91;99.77;100573.25;5043187;28;20384;-72
2023/03/12 11:25:56;;;;;;;5.90;1.52;;;;;;;2.90;98.74;100566.38;5049915;28;20124;-72
2023/03/12 11:28:28;;;;;;;3.55;1.48;;;;;;;2.89;99.04;100566.31;5049717;28;20049;-72
2023/03/12 11:30:59;;;;;;;4.63;2.17;;;;;;;2.82;98.68;100553.94;5048536;28;20052;-71
2023/03/12 11:33:35;;;;;;;3.92;1.27;;;;;;;2.82;100.00;100549.75;5055099;28;20415;-71
2023/03/12 11:36:16;;;;;;;4.57;2.00;;;;;;;2.83;100.00;100541.28;5051358;28;20568;-71
2023/03/12 11:38:55;;;;;;;5.47;1.98;;;;;;;2.83;99.28;100548.06;5057634;28;20044;-72
2023/03/12 11:41:41;;;;;;;6.28;2.03;;;;;;;2.83;99.28;100535.28;5051700;28;20086;-72
2023/03/12 11:44:24;;;;;;;3.97;2.45;;;;;;;2.83;100.00;100530.19;5051255;28;20059;-72
2023/03/12 11:47:03;;;;;;;2.78;1.10;;;;;;;2.83;100.00;100527.63;5042831;28;20049;-71